Sunday, February 25, 2018, 3:40 AM GMT
Back to Local

CWVQ, Ste Anne De Bell 1

Location: , , Canada Lat: 45.433
Local Time: 3:40 AM GMT ( 3:40 GMT) Lon: -73.933
Time Zone: GMT Elev: 127 ft

Show me the last for .
Show Decoded

2018-02-25 03:00 METAR CWVQ 250300Z AUTO 03002KT M04/M06 RMK AO1 SOG 15 1013 SLP267 T10361059 =
2018-02-25 02:00 METAR CWVQ 250200Z AUTO 36002KT M02/M06 RMK AO1 SOG 15 1017 SLP266 T10241058 =
2018-02-25 01:00 METAR CWVQ 250100Z AUTO 35004KT M02/M06 RMK AO1 SOG 15 3016 SLP262 T10241058 =
2018-02-25 00:00 METAR CWVQ 250000Z AUTO 33003KT M02/M05 RMK AO1 SOG 15 3010 SLP254 T10161047 =
2018-02-24 23:00 METAR CWVQ 242300Z AUTO 29002KT M01/M05 RMK AO1 SOG 15 1011 SLP249 T10111049 =
2018-02-24 22:00 METAR CWVQ 242200Z AUTO 29004KT 01/M04 RMK AO1 SOG 15 1012 SLP246 T00071042 =
2018-02-24 21:00 METAR CWVQ 242100Z AUTO 32006KT 01/M04 RMK AO1 SOG 15 3012 SLP244 T00111041 =
2018-02-24 20:00 METAR CWVQ 242000Z AUTO 33009KT 01/M04 RMK AO1 SOG 15 2010 SLP238 T00111038 =
2018-02-24 19:00 METAR CWVQ 241900Z AUTO 31009KT 02/M04 RMK AO1 SOG 15 1012 PK WND 31017/1842
                 SLP234 T00191037 =
2018-02-24 18:00 METAR CWVQ 241800Z AUTO 30010KT 02/M04 RMK AO1 SOG 15 1019 PK WND 29018/1723
                 SLP232 T00231035 =
2018-02-24 17:00 METAR CWVQ 241700Z AUTO 30010G15KT 02/M03 RMK AO1 SOG 15 3019 SLP228 T00231033 =
2018-02-24 16:00 METAR CWVQ 241600Z AUTO 32010G17KT 02/M02 RMK AO1 SOG 15 1023 PK WND 31018/1502
                 SLP222 T00201021 =
2018-02-24 15:00 METAR CWVQ 241500Z AUTO 32013G18KT 02/M02 RMK AO1 SOG 15 1025 PK WND 33018/1459
                 SLP213 T00201019 =
2018-02-24 14:00 METAR CWVQ 241400Z AUTO 30010G16KT 03/01 RMK AO1 SOG 15 3029 PK WND 28017/1302
                 SLP209 T00270005 =
2018-02-24 13:00 METAR CWVQ 241300Z AUTO 28010G15KT 03/M00 RMK AO1 SOG 15 3026 PK WND 26021/1244
                 SLP199 T00291002 =
2018-02-24 12:00 METAR CWVQ 241200Z AUTO 26007KT 03/01 RMK AO1 SOG 15 2023 SLP188 T00300009 =
2018-02-24 11:00 METAR CWVQ 241100Z AUTO 26008KT 03/01 RMK AO1 SOG 15 3019 SLP180 T00310013 =
2018-02-24 10:00 METAR CWVQ 241000Z AUTO 25007KT 03/02 RMK AO1 SOG 15 3016 SLP173 T00270015 =
2018-02-24 09:00 METAR CWVQ 240900Z AUTO 26009G15KT 03/02 RMK AO1 SOG 15 1016 SLP165 T00270018 =
2018-02-24 08:00 METAR CWVQ 240800Z AUTO 26009KT 03/02 RMK AO1 SOG 16 3015 SLP161 T00290022 =
2018-02-24 07:00 METAR CWVQ 240700Z AUTO 26010KT 03/03 RMK AO1 SOG 16 3010 SLP157 T00290029 =
2018-02-24 06:00 METAR CWVQ 240600Z AUTO 26009KT 02/02 RMK AO1 SOG 16 5002 PK WND 27017/0529
                 SLP149 T00240024 50018 =
2018-02-24 05:00 METAR CWVQ 240500Z AUTO 24008KT 02/02 RMK AO1 2PAST HR SOG 15 6008 SLP146 P0001
                 T00160016 50018 =
2018-02-24 04:00 METAR CWVQ 240400Z AUTO 23003KT M00/M00 RMK AO1 2PAST HR SOG 15 8010 SLP147
                 P0001 T10031003 50016 =

Support USWX by starting your Amazon purchase here.